Time;durP1;ratioP1;P1;durP2;ratioP2;P2;SDS_P1;SDS_P2;PMS_P1;PMS_P2;Temp;Humidity;BMP_temperature;BMP_pressure;BME280_temperature;BME280_humidity;BME280_pressure;Samples;Min_cycle;Max_cycle;Signal;HPM_P1;HPM_P2
2022/05/04 00:00:23;;;;;;;11.50;5.07;;;;;;;5.04;81.15;102011.78;5013353;28;20180;-73
2022/05/04 00:02:48;;;;;;;9.67;5.03;;;;;;;5.02;81.55;102015.88;5013297;28;20202;-74
2022/05/04 00:05:14;;;;;;;9.57;5.07;;;;;;;5.00;81.67;102016.56;5012862;28;20198;-73
2022/05/04 00:07:39;;;;;;;9.80;4.67;;;;;;;4.97;82.02;102014.72;5013271;28;20850;-73
2022/05/04 00:10:06;;;;;;;11.87;5.20;;;;;;;4.98;82.13;102024.06;5016121;28;20198;-73
2022/05/04 00:12:32;;;;;;;14.17;5.73;;;;;;;4.81;82.62;102017.13;5032924;28;20591;-73
2022/05/04 00:14:58;;;;;;;13.80;5.60;;;;;;;4.91;81.68;102021.06;5032175;28;20194;-73
2022/05/04 00:17:24;;;;;;;11.70;6.03;;;;;;;4.82;81.63;102017.97;5032998;28;20587;-73
2022/05/04 00:19:49;;;;;;;12.00;5.40;;;;;;;4.80;80.96;102019.56;5032658;28;20186;-73
2022/05/04 00:22:19;;;;;;;11.23;5.40;;;;;;;4.68;81.39;102014.63;5031359;28;20264;-73
2022/05/04 00:24:45;;;;;;;14.60;5.43;;;;;;;4.60;81.87;102008.19;5032590;28;20202;-74
2022/05/04 00:27:11;;;;;;;13.23;5.30;;;;;;;4.64;81.68;102017.75;5032169;28;20182;-73
2022/05/04 00:29:36;;;;;;;12.53;5.17;;;;;;;4.55;81.99;102017.19;5032538;28;20186;-73
2022/05/04 00:32:01;;;;;;;10.17;5.20;;;;;;;4.54;81.58;102015.44;5031966;28;20626;-73
2022/05/04 00:34:27;;;;;;;14.77;5.17;;;;;;;4.49;82.25;102015.91;5032386;28;20548;-73
2022/05/04 00:36:52;;;;;;;10.83;4.70;;;;;;;4.54;82.30;102020.50;5032894;28;20240;-73
2022/05/04 00:39:17;;;;;;;9.27;5.20;;;;;;;4.65;83.17;102019.50;5031146;28;20225;-73
2022/05/04 00:41:43;;;;;;;11.93;5.60;;;;;;;4.67;82.79;102017.94;5032176;28;20186;-73
2022/05/04 00:44:08;;;;;;;14.90;6.10;;;;;;;4.65;83.93;102023.72;5031729;28;20266;-73
2022/05/04 00:46:33;;;;;;;14.90;6.00;;;;;;;4.65;83.99;102024.56;5032369;28;20647;-74
2022/05/04 00:48:59;;;;;;;11.10;5.50;;;;;;;4.56;83.68;102008.78;5029036;28;20523;-73
2022/05/04 00:51:25;;;;;;;13.03;5.87;;;;;;;4.44;83.87;102020.72;5033555;28;20677;-73
2022/05/04 00:53:50;;;;;;;12.40;6.43;;;;;;;4.36;84.25;102016.81;5036984;28;20205;-73
2022/05/04 00:56:15;;;;;;;10.47;6.07;;;;;;;4.39;84.40;102014.47;5040751;28;20217;-73
2022/05/04 00:58:56;;;;;;;13.50;6.33;;;;;;;4.40;84.97;102010.28;5032203;28;20197;-73
2022/05/04 01:01:25;;;;;;;11.33;5.70;;;;;;;4.25;84.73;102016.94;5032224;28;20246;-73
2022/05/04 01:03:51;;;;;;;10.53;5.47;;;;;;;4.17;84.41;102011.38;5016099;28;20218;-73
2022/05/04 01:06:16;;;;;;;11.03;5.93;;;;;;;4.09;84.74;102011.69;5011850;28;20806;-73
2022/05/04 01:08:41;;;;;;;11.97;5.43;;;;;;;4.15;84.30;102017.13;5022042;28;20190;-73
2022/05/04 01:11:07;;;;;;;10.67;5.73;;;;;;;4.03;84.08;102016.34;5044448;28;20196;-73
2022/05/04 01:13:32;;;;;;;10.03;5.20;;;;;;;4.00;84.89;102021.22;5040521;28;20257;-73
2022/05/04 01:15:57;;;;;;;9.47;5.27;;;;;;;3.89;85.67;102025.59;5051219;28;20305;-73
2022/05/04 01:18:23;;;;;;;10.63;5.23;;;;;;;3.97;84.51;102018.50;5034619;28;20840;-73
2022/05/04 01:20:48;;;;;;;10.27;4.93;;;;;;;3.87;84.13;102023.75;5050575;28;20675;-73
2022/05/04 01:23:14;;;;;;;12.00;5.50;;;;;;;3.94;83.37;102025.88;5044977;28;20221;-73
2022/05/04 01:25:39;;;;;;;11.77;5.23;;;;;;;3.88;83.05;102033.09;5039883;28;20571;-73
2022/05/04 01:28:05;;;;;;;9.53;5.33;;;;;;;3.83;84.00;102020.16;5016621;28;20191;-73
2022/05/04 01:30:32;;;;;;;12.80;5.27;;;;;;;3.82;84.20;102013.31;5033557;28;20719;-73
2022/05/04 01:32:59;;;;;;;12.10;5.50;;;;;;;3.76;84.94;102015.44;5020314;28;20771;-73
2022/05/04 01:35:24;;;;;;;9.77;5.43;;;;;;;3.79;84.50;102008.06;5033897;28;20224;-73
2022/05/04 01:37:49;;;;;;;13.17;5.97;;;;;;;3.77;84.52;102007.06;5043592;28;20234;-73
2022/05/04 01:40:15;;;;;;;11.03;6.17;;;;;;;3.76;84.76;102010.38;5018601;28;20194;-73
2022/05/04 01:42:40;;;;;;;14.37;6.03;;;;;;;3.75;84.88;102011.16;5035677;28;20218;-73
2022/05/04 01:45:08;;;;;;;11.53;5.10;;;;;;;3.59;84.22;102010.06;5030261;28;20237;-73
2022/05/04 01:47:34;;;;;;;9.37;5.10;;;;;;;3.64;84.60;102013.78;5032987;28;20272;-73
2022/05/04 01:49:59;;;;;;;13.30;5.20;;;;;;;3.71;85.02;102015.91;5033539;28;20356;-73
2022/05/04 01:52:25;;;;;;;10.60;5.47;;;;;;;3.66;84.58;102009.69;5031980;28;20226;-73
2022/05/04 01:54:50;;;;;;;9.43;5.43;;;;;;;3.68;84.31;102011.53;5022219;28;20186;-73
2022/05/04 01:57:16;;;;;;;9.10;5.00;;;;;;;3.57;83.98;102014.13;5029939;28;20214;-73
2022/05/04 01:59:41;;;;;;;11.30;5.53;;;;;;;3.57;82.98;102017.56;5031013;28;20214;-73
2022/05/04 02:02:09;;;;;;;8.37;5.27;;;;;;;3.37;84.00;102014.50;5035483;28;20686;-73
2022/05/04 02:04:35;;;;;;;12.70;4.90;;;;;;;3.36;84.51;102017.81;5038548;28;20726;-73
2022/05/04 02:07:01;;;;;;;9.97;5.80;;;;;;;3.47;85.54;102016.84;5008098;28;20566;-74
2022/05/04 02:09:27;;;;;;;11.07;5.87;;;;;;;3.45;85.83;102013.34;5040226;28;20181;-74
2022/05/04 02:11:52;;;;;;;14.77;6.03;;;;;;;3.40;85.25;102018.09;5031999;28;20654;-73
2022/05/04 02:14:19;;;;;;;14.53;6.67;;;;;;;3.39;85.96;102023.94;5041486;28;20189;-73
2022/05/04 02:16:45;;;;;;;16.00;6.03;;;;;;;3.41;85.24;102027.44;5025801;28;20237;-73
2022/05/04 02:19:10;;;;;;;10.73;5.53;;;;;;;3.35;85.52;102023.66;5036462;28;20696;-73
2022/05/04 02:21:35;;;;;;;12.20;6.00;;;;;;;3.36;85.15;102020.34;5033098;28;20561;-73
2022/05/04 02:24:01;;;;;;;11.73;6.20;;;;;;;3.30;85.12;102020.78;5032590;28;20701;-73
2022/05/04 02:26:26;;;;;;;7.77;5.77;;;;;;;3.36;84.69;102026.25;5046682;28;20843;-73
2022/05/04 02:28:51;;;;;;;12.17;5.80;;;;;;;3.27;83.78;102019.72;5042778;28;20182;-74
2022/05/04 02:31:17;;;;;;;13.93;5.77;;;;;;;3.25;83.80;102029.72;5028688;28;20218;-73
2022/05/04 02:33:44;;;;;;;9.67;5.93;;;;;;;3.20;83.72;102030.19;5031774;28;20686;-73
2022/05/04 02:38:53;;;;;;;11.23;6.10;;;;;;;3.02;85.27;102019.72;5031060;28;20718;-73
2022/05/04 02:41:18;;;;;;;12.10;6.23;;;;;;;3.00;85.31;102021.28;5043514;28;20185;-73
2022/05/04 02:43:43;;;;;;;11.57;7.00;;;;;;;3.04;84.91;102020.69;5039746;28;20226;-73
2022/05/04 02:46:13;;;;;;;12.30;6.07;;;;;;;3.04;84.60;102017.28;5025057;28;20187;-73
2022/05/04 02:48:38;;;;;;;16.97;6.17;;;;;;;2.97;84.68;102021.06;5026485;28;20265;-73
2022/05/04 02:51:04;;;;;;;11.07;6.07;;;;;;;2.97;85.04;102032.81;5034523;28;20284;-73
2022/05/04 02:53:29;;;;;;;14.63;6.50;;;;;;;2.94;84.53;102025.88;5037526;28;20241;-73
2022/05/04 02:55:54;;;;;;;13.80;6.07;;;;;;;2.88;85.27;102025.47;5024877;28;20690;-73
2022/05/04 02:58:19;;;;;;;10.90;5.70;;;;;;;2.94;85.00;102025.03;5039920;28;20217;-73
2022/05/04 03:00:45;;;;;;;14.07;6.13;;;;;;;2.92;84.84;102024.03;5041481;28;20196;-73
2022/05/04 03:03:10;;;;;;;11.53;6.00;;;;;;;2.89;83.83;102028.91;5049321;28;20307;-73
2022/05/04 03:05:36;;;;;;;17.10;6.60;;;;;;;2.87;83.18;102022.84;5032195;28;20281;-73
2022/05/04 03:08:01;;;;;;;14.67;6.80;;;;;;;2.78;84.10;102025.63;5036581;28;20252;-73
2022/05/04 03:10:27;;;;;;;13.47;6.40;;;;;;;2.78;84.65;102025.63;5042207;28;20188;-73
2022/05/04 03:12:52;;;;;;;14.13;6.27;;;;;;;2.79;84.67;102026.50;5029522;28;20210;-73
2022/05/04 03:15:17;;;;;;;13.20;6.40;;;;;;;2.74;84.11;102020.25;5023772;28;20187;-73
2022/05/04 03:17:43;;;;;;;12.97;5.67;;;;;;;2.68;85.45;102022.34;5036703;28;20202;-73
2022/05/04 03:20:11;;;;;;;11.40;6.30;;;;;;;2.66;85.08;102016.31;5029184;28;20240;-73
2022/05/04 03:22:37;;;;;;;13.53;6.73;;;;;;;2.61;86.67;102013.47;5034792;28;20252;-73
2022/05/04 03:25:06;;;;;;;13.70;6.70;;;;;;;2.66;86.03;102027.28;5030294;28;20887;-73
2022/05/04 03:27:32;;;;;;;16.17;6.40;;;;;;;2.59;86.24;102019.19;5035974;28;20181;-73
2022/05/04 03:29:57;;;;;;;10.10;5.70;;;;;;;2.68;86.11;102023.25;5029171;28;20202;-73
2022/05/04 03:32:22;;;;;;;13.67;5.93;;;;;;;2.68;85.60;102014.78;5035424;28;20222;-73
2022/05/04 03:34:48;;;;;;;14.30;6.50;;;;;;;2.64;85.06;102017.84;5046826;28;20200;-73
2022/05/04 03:37:14;;;;;;;11.43;5.93;;;;;;;2.67;85.07;102018.94;5046676;28;20209;-73
2022/05/04 03:39:39;;;;;;;13.97;7.10;;;;;;;2.65;85.34;102020.50;5031170;28;20840;-73
2022/05/04 03:42:05;;;;;;;12.27;7.03;;;;;;;2.59;84.78;102014.13;5033875;28;20309;-73
2022/05/04 03:44:30;;;;;;;11.30;6.17;;;;;;;2.66;84.81;102024.78;5030796;28;20214;-73
2022/05/04 03:46:55;;;;;;;9.60;6.90;;;;;;;2.74;85.94;102022.75;5036995;28;20615;-73
2022/05/04 03:49:22;;;;;;;17.27;6.97;;;;;;;2.78;86.10;102019.69;5027984;28;20569;-73
2022/05/04 03:51:48;;;;;;;14.03;7.27;;;;;;;2.85;86.05;102021.88;5033913;28;20832;-73
2022/05/04 03:54:13;;;;;;;11.47;7.40;;;;;;;2.90;87.37;102025.59;5032554;28;20192;-73
2022/05/04 03:56:39;;;;;;;11.90;7.63;;;;;;;2.89;87.83;102019.66;5027938;28;20301;-73
2022/05/04 03:59:06;;;;;;;11.83;7.60;;;;;;;2.91;87.54;102024.81;5027116;28;20839;-73
2022/05/04 04:01:32;;;;;;;15.53;8.33;;;;;;;3.05;88.36;102021.56;5029595;28;20190;-73
2022/05/04 04:03:57;;;;;;;14.27;7.23;;;;;;;3.06;88.23;102023.31;5035895;28;20217;-73
2022/05/04 04:06:23;;;;;;;15.67;7.53;;;;;;;3.16;87.82;102024.06;5035697;28;20186;-73
2022/05/04 04:08:49;;;;;;;15.93;7.40;;;;;;;3.19;88.23;102025.91;5035179;28;20293;-73
2022/05/04 04:11:15;;;;;;;14.73;7.60;;;;;;;3.18;88.18;102032.59;5049147;28;20193;-73
2022/05/04 04:13:40;;;;;;;16.43;8.23;;;;;;;3.17;88.70;102030.84;5038167;28;20223;-73
2022/05/04 04:16:05;;;;;;;12.73;7.93;;;;;;;3.18;89.32;102030.06;5035251;28;20240;-74
2022/05/04 04:18:31;;;;;;;13.10;8.30;;;;;;;3.22;89.72;102036.25;5028213;28;20629;-73
2022/05/04 04:23:41;;;;;;;15.90;8.30;;;;;;;3.43;89.27;102030.06;5037669;28;20205;-73
2022/05/04 04:26:07;;;;;;;20.97;7.77;;;;;;;3.50;89.60;102034.78;5021583;28;20199;-73
2022/05/04 04:28:34;;;;;;;13.93;7.60;;;;;;;3.60;89.45;102027.00;5025035;28;20182;-73
2022/05/04 04:31:01;;;;;;;15.20;7.50;;;;;;;3.63;88.99;102022.16;5037605;28;20194;-73
2022/05/04 04:33:26;;;;;;;14.00;6.70;;;;;;;3.59;88.77;102030.31;5033120;28;20240;-73
2022/05/04 04:35:53;;;;;;;10.23;6.93;;;;;;;3.56;88.88;102031.00;5031289;28;20281;-74
2022/05/04 04:38:19;;;;;;;11.87;7.40;;;;;;;3.61;89.28;102031.28;5032178;28;20218;-73
2022/05/04 04:40:44;;;;;;;15.90;8.53;;;;;;;3.68;88.43;102024.19;5015918;28;20191;-73
2022/05/04 04:43:10;;;;;;;12.67;7.17;;;;;;;3.70;88.55;102027.72;5010908;28;20222;-73
2022/05/04 04:45:36;;;;;;;13.90;8.23;;;;;;;3.70;89.33;102009.09;5012635;28;20199;-73
2022/05/04 04:48:01;;;;;;;13.00;7.70;;;;;;;3.92;88.10;102012.25;5025661;28;20193;-72
2022/05/04 04:50:26;;;;;;;17.07;7.93;;;;;;;4.00;88.64;102014.47;5052285;28;20193;-73
2022/05/04 04:52:52;;;;;;;17.80;8.37;;;;;;;4.20;88.24;102008.16;5050874;28;20216;-72
2022/05/04 04:55:17;;;;;;;11.97;7.87;;;;;;;4.36;88.54;102005.78;5050538;28;20197;-73
2022/05/04 04:57:43;;;;;;;13.67;7.87;;;;;;;4.46;88.42;102005.59;5052164;28;20294;-73
2022/05/04 05:00:09;;;;;;;15.83;8.10;;;;;;;4.50;88.60;102010.06;5024041;28;20218;-73
2022/05/04 05:02:35;;;;;;;17.73;8.43;;;;;;;4.62;88.43;102009.19;5032178;28;20280;-73
2022/05/04 05:05:02;;;;;;;11.40;7.40;;;;;;;4.70;88.89;102007.97;5050195;28;20189;-74
2022/05/04 05:07:27;;;;;;;13.40;7.70;;;;;;;4.84;89.08;102002.06;5050792;28;20213;-73
2022/05/04 05:09:53;;;;;;;14.30;7.80;;;;;;;4.91;89.20;102000.78;5051869;28;20224;-73
2022/05/04 05:12:18;;;;;;;17.17;7.70;;;;;;;5.03;89.24;101999.88;5051728;28;20197;-74
2022/05/04 05:17:28;;;;;;;18.20;7.73;;;;;;;5.32;88.61;102004.13;5051370;28;20290;-73
2022/05/04 05:19:53;;;;;;;14.87;8.37;;;;;;;5.45;88.47;101997.31;5048777;28;20229;-73
2022/05/04 05:22:18;;;;;;;14.13;8.60;;;;;;;5.49;88.31;101999.25;5051289;28;20202;-72
2022/05/04 05:24:44;;;;;;;17.93;7.93;;;;;;;5.63;88.08;102006.00;5050887;28;20194;-74
2022/05/04 05:27:09;;;;;;;18.70;8.63;;;;;;;5.75;87.54;102006.69;5051375;28;20296;-74
2022/05/04 05:29:35;;;;;;;16.60;8.67;;;;;;;5.82;87.56;102005.41;5026569;28;20268;-73
2022/05/04 05:32:00;;;;;;;18.33;8.43;;;;;;;5.85;87.55;102009.00;5021664;28;20219;-73
2022/05/04 05:34:28;;;;;;;18.03;9.17;;;;;;;5.82;87.81;102010.50;5023719;28;20190;-73
2022/05/04 05:36:53;;;;;;;18.27;9.03;;;;;;;5.99;87.46;102014.88;5020592;28;20214;-73
2022/05/04 05:39:19;;;;;;;15.60;8.67;;;;;;;6.08;87.46;102017.94;5027013;28;20205;-73
2022/05/04 05:41:44;;;;;;;18.63;8.50;;;;;;;5.92;86.72;102015.28;5030781;28;20581;-73
2022/05/04 05:44:09;;;;;;;16.83;8.00;;;;;;;6.09;85.81;102012.03;5029215;28;20186;-73
2022/05/04 05:46:35;;;;;;;15.57;8.07;;;;;;;6.31;85.76;102017.53;5031367;28;20260;-73
2022/05/04 05:49:00;;;;;;;18.10;8.33;;;;;;;6.29;85.53;102021.63;5030024;28;20229;-73
2022/05/04 05:51:25;;;;;;;17.13;7.73;;;;;;;6.43;84.92;102019.06;5030791;28;20689;-73
2022/05/04 05:53:51;;;;;;;13.77;7.50;;;;;;;6.59;84.27;102021.63;5031109;28;20206;-73
2022/05/04 05:56:16;;;;;;;16.30;7.53;;;;;;;6.70;82.69;102009.50;5029211;28;20190;-74
2022/05/04 05:58:42;;;;;;;12.17;6.30;;;;;;;6.79;81.57;102010.00;5029679;28;20216;-73
2022/05/04 06:01:07;;;;;;;13.13;7.70;;;;;;;6.73;82.35;102007.13;5030295;28;20240;-73
2022/05/04 06:03:32;;;;;;;13.67;7.10;;;;;;;6.92;81.45;102020.91;5030800;28;20764;-73
2022/05/04 06:05:58;;;;;;;16.70;7.10;;;;;;;7.19;80.85;102008.72;5029105;28;20194;-74
2022/05/04 06:08:23;;;;;;;14.10;6.23;;;;;;;7.21;80.31;102007.13;5014270;28;20184;-74
2022/05/04 06:10:48;;;;;;;10.50;6.10;;;;;;;7.28;79.66;102012.59;5009650;28;20191;-73
2022/05/04 06:13:14;;;;;;;13.03;6.57;;;;;;;7.39;79.76;102006.41;5010465;28;20209;-72
2022/05/04 06:15:39;;;;;;;14.93;6.80;;;;;;;7.53;78.14;102010.53;5010716;28;20187;-74
2022/05/04 06:18:04;;;;;;;12.80;6.07;;;;;;;7.64;78.10;102013.59;5010332;28;20215;-75
2022/05/04 06:20:31;;;;;;;15.93;6.43;;;;;;;8.07;78.00;102004.69;4993588;28;20198;-74
2022/05/04 06:22:56;;;;;;;14.07;5.30;;;;;;;8.16;76.54;102000.88;5010539;28;20920;-72
2022/05/04 06:25:22;;;;;;;11.60;5.40;;;;;;;8.31;75.63;102006.75;5023894;28;20321;-75
2022/05/04 06:27:47;;;;;;;14.77;6.47;;;;;;;8.55;74.78;102004.44;5030463;28;20281;-75
2022/05/04 06:35:40;;;;;;;17.70;6.10;;;;;;;9.28;72.40;102000.13;5029661;28;20584;-73
2022/05/04 06:38:06;;;;;;;12.90;4.90;;;;;;;9.43;71.91;101995.66;5030073;28;20263;-73
2022/05/04 06:40:32;;;;;;;10.80;5.00;;;;;;;9.41;71.32;101999.84;5029344;28;20213;-73
2022/05/04 06:42:57;;;;;;;12.33;5.40;;;;;;;9.71;71.76;101990.91;5008343;28;20215;-72
2022/05/04 06:45:23;;;;;;;12.47;5.57;;;;;;;9.74;69.70;101997.81;5009969;28;20181;-73
2022/05/04 06:47:49;;;;;;;12.03;4.90;;;;;;;9.73;69.68;101996.94;5009033;28;20207;-74
2022/05/04 06:50:15;;;;;;;9.27;4.83;;;;;;;10.05;68.60;102000.84;5023602;28;20209;-75
2022/05/04 06:52:41;;;;;;;14.17;4.70;;;;;;;10.46;67.69;101996.50;5028883;28;20202;-76
2022/05/04 06:55:07;;;;;;;9.40;4.40;;;;;;;10.70;66.97;102002.53;5029083;28;20191;-77
2022/05/04 06:57:32;;;;;;;9.83;3.97;;;;;;;10.96;65.78;102000.97;5029807;28;20222;-77
2022/05/04 06:59:59;;;;;;;8.33;3.47;;;;;;;11.12;63.15;101998.13;5029584;28;20186;-76
2022/05/04 07:02:24;;;;;;;7.90;2.90;;;;;;;11.31;61.61;101993.72;5031194;28;20634;-72
2022/05/04 07:04:50;;;;;;;9.83;2.70;;;;;;;11.34;60.43;101993.78;5028673;28;20194;-72
2022/05/04 07:07:15;;;;;;;7.70;2.50;;;;;;;11.45;59.39;101989.94;5029799;28;20194;-72
2022/05/04 07:09:40;;;;;;;8.33;2.97;;;;;;;11.67;59.01;101987.31;5029495;28;20194;-72
2022/05/04 07:12:06;;;;;;;8.03;3.10;;;;;;;11.76;58.26;101981.59;5028590;28;20610;-72
2022/05/04 07:14:32;;;;;;;8.33;2.30;;;;;;;11.62;58.53;101983.69;5028540;28;20218;-72
2022/05/04 07:16:57;;;;;;;6.90;2.60;;;;;;;11.92;58.87;101989.84;5028878;28;20257;-73
2022/05/04 07:19:22;;;;;;;8.23;2.00;;;;;;;11.88;58.43;101987.09;5029494;28;20222;-73
2022/05/04 07:21:48;;;;;;;6.90;2.03;;;;;;;11.87;57.08;101983.69;5028918;28;20186;-73
2022/05/04 07:24:13;;;;;;;5.13;1.90;;;;;;;11.98;57.21;101987.44;5029285;28;20218;-73
2022/05/04 07:26:40;;;;;;;8.07;2.07;;;;;;;12.29;55.73;101986.72;5029399;28;20682;-73
2022/05/04 07:29:05;;;;;;;6.43;2.33;;;;;;;12.54;54.18;101984.94;5028936;28;20182;-72
2022/05/04 07:31:31;;;;;;;9.00;2.10;;;;;;;12.76;53.81;101978.75;5015487;28;20295;-72
2022/05/04 07:33:56;;;;;;;7.90;2.03;;;;;;;12.74;53.61;101970.97;5028779;28;20252;-73
2022/05/04 07:36:21;;;;;;;7.07;2.00;;;;;;;13.00;53.03;101976.00;5029180;28;20209;-73
2022/05/04 07:38:46;;;;;;;6.63;1.80;;;;;;;12.94;53.78;101984.38;5028214;28;20220;-72
2022/05/04 07:43:56;;;;;;;7.10;2.07;;;;;;;13.23;53.64;101978.38;5028853;28;20206;-72
2022/05/04 07:46:21;;;;;;;7.43;2.37;;;;;;;13.40;52.82;101979.69;5028888;28;20197;-72
2022/05/04 07:48:46;;;;;;;8.50;2.37;;;;;;;13.67;53.10;101982.97;5026238;28;20190;-73
2022/05/04 07:51:12;;;;;;;9.80;2.70;;;;;;;13.75;51.84;101983.16;5009011;28;20186;-73
2022/05/04 07:53:37;;;;;;;6.20;2.67;;;;;;;13.85;51.20;101987.72;5011988;28;20265;-73
2022/05/04 07:56:03;;;;;;;7.43;2.40;;;;;;;13.96;51.00;101988.84;5028552;28;20194;-72
2022/05/04 07:58:29;;;;;;;7.13;2.37;;;;;;;13.59;51.98;101978.47;5028833;28;20214;-72
2022/05/04 08:06:22;;;;;;;10.40;2.60;;;;;;;13.86;50.18;101985.16;5024592;28;20274;-72
2022/05/04 08:08:47;;;;;;;8.73;2.63;;;;;;;14.33;50.94;101983.72;5011214;28;20274;-73
2022/05/04 08:11:12;;;;;;;8.33;2.47;;;;;;;14.54;49.91;101984.22;5013343;28;20295;-73
2022/05/04 08:13:38;;;;;;;8.40;2.83;;;;;;;14.07;51.63;101988.25;5012593;28;20298;-72
2022/05/04 08:16:04;;;;;;;9.40;2.57;;;;;;;14.76;49.43;101982.13;5013022;28;20374;-72
2022/05/04 08:18:30;;;;;;;7.50;2.57;;;;;;;15.14;48.33;101988.91;5012738;28;20211;-72
2022/05/04 08:20:55;;;;;;;7.77;2.47;;;;;;;15.38;48.45;101986.81;5013032;28;20193;-71
2022/05/04 08:23:21;;;;;;;8.20;2.40;;;;;;;15.30;47.52;101987.47;5013012;28;20210;-72
2022/05/04 08:25:46;;;;;;;10.80;2.80;;;;;;;13.69;50.35;101994.19;5029703;28;20210;-72
2022/05/04 08:28:14;;;;;;;7.87;2.63;;;;;;;14.77;49.42;101993.28;5032672;28;20601;-72
2022/05/04 08:30:40;;;;;;;7.93;2.50;;;;;;;14.76;48.96;101991.53;5020165;28;20230;-72
2022/05/04 08:33:06;;;;;;;11.50;2.63;;;;;;;15.03;48.46;101998.16;5032418;28;20210;-72
2022/05/04 08:35:32;;;;;;;8.37;2.67;;;;;;;14.90;47.32;101985.84;5032142;28;20190;-72
2022/05/04 08:37:58;;;;;;;8.37;2.50;;;;;;;14.84;47.89;101988.31;5032031;28;20222;-72
2022/05/04 08:40:24;;;;;;;7.97;2.80;;;;;;;14.47;49.68;101987.50;5031533;28;20206;-73
2022/05/04 08:42:51;;;;;;;8.40;2.30;;;;;;;15.41;47.23;101988.56;5031751;28;20276;-73
2022/05/04 08:45:17;;;;;;;7.47;2.13;;;;;;;15.72;46.04;101984.00;5032031;28;20186;-73
2022/05/04 08:47:45;;;;;;;7.70;2.23;;;;;;;16.31;45.68;101978.00;5031793;28;20179;-73
2022/05/04 08:50:16;;;;;;;8.77;2.47;;;;;;;16.37;45.64;101985.00;5030834;28;20197;-73
2022/05/04 08:52:51;;;;;;;9.30;2.63;;;;;;;16.36;45.52;101989.31;5030609;28;20689;-73
2022/05/04 08:55:17;;;;;;;5.87;2.10;;;;;;;16.33;44.81;101978.91;5031772;28;20194;-73
2022/05/04 08:57:43;;;;;;;7.20;2.30;;;;;;;15.85;45.79;101974.72;5021474;28;20218;-73
2022/05/04 09:00:10;;;;;;;5.03;2.27;;;;;;;15.67;45.75;101989.91;5011790;28;20186;-73
2022/05/04 09:02:39;;;;;;;4.97;1.97;;;;;;;16.72;45.37;101982.06;5014669;28;20584;-73
2022/05/04 09:05:18;;;;;;;6.30;2.50;;;;;;;16.87;44.24;101974.50;5037527;28;20247;-73
2022/05/04 09:07:44;;;;;;;6.67;2.63;;;;;;;16.69;43.84;101979.44;5031850;28;20187;-73
2022/05/04 09:10:21;;;;;;;6.10;2.47;;;;;;;16.33;44.36;101984.09;5031247;28;20225;-73
2022/05/04 09:12:48;;;;;;;8.20;2.33;;;;;;;16.44;44.00;101973.94;5031698;28;20225;-73
2022/05/04 09:15:25;;;;;;;8.83;2.63;;;;;;;16.68;43.79;101974.25;5017559;28;20210;-74
2022/05/04 09:17:58;;;;;;;5.20;2.17;;;;;;;16.60;43.56;101976.75;5011510;28;20195;-74
2022/05/04 09:23:11;;;;;;;8.57;3.10;;;;;;;16.34;44.35;101967.72;5011672;28;20211;-74
2022/05/04 09:25:36;;;;;;;5.47;2.47;;;;;;;16.39;44.54;101973.81;5015048;28;20233;-75
2022/05/04 09:28:01;;;;;;;13.40;3.33;;;;;;;16.86;43.88;101969.31;5021974;28;20190;-73
2022/05/04 09:30:27;;;;;;;10.80;2.83;;;;;;;17.62;41.87;101969.25;5031420;28;20258;-74
2022/05/04 09:32:52;;;;;;;5.77;2.47;;;;;;;17.49;42.11;101965.69;5030994;28;20718;-74
2022/05/04 09:35:18;;;;;;;8.70;2.83;;;;;;;18.16;41.42;101965.41;5030747;28;20647;-74
2022/05/04 09:46:13;;;;;;;6.87;2.90;;;;;;;18.20;41.13;101968.88;5030631;28;20182;-73
2022/05/04 09:48:40;;;;;;;5.10;2.43;;;;;;;17.85;41.65;101963.44;5022162;28;20762;-73
2022/05/04 09:51:07;;;;;;;9.03;3.57;;;;;;;17.98;40.73;101961.78;5010873;28;20759;-74
2022/05/04 09:53:34;;;;;;;7.10;3.20;;;;;;;18.14;40.91;101963.66;5011194;28;20206;-74
2022/05/04 09:56:01;;;;;;;10.13;3.30;;;;;;;18.16;40.49;101961.91;5010643;28;20179;-74
2022/05/04 09:58:27;;;;;;;5.30;2.57;;;;;;;17.90;41.36;101960.84;5013546;28;20242;-73
2022/05/04 10:00:54;;;;;;;8.70;3.47;;;;;;;18.71;41.07;101959.69;5030723;28;20240;-73
2022/05/04 10:03:21;;;;;;;5.60;2.50;;;;;;;19.24;39.85;101954.66;5030315;28;20198;-73
2022/05/04 10:05:48;;;;;;;6.43;3.03;;;;;;;18.85;41.18;101960.59;5030470;28;20635;-73
2022/05/04 10:08:13;;;;;;;9.43;2.97;;;;;;;18.52;40.46;101952.63;5030084;28;20182;-73
2022/05/04 10:10:39;;;;;;;6.57;2.73;;;;;;;18.30;41.46;101950.78;5030553;28;20179;-73
2022/05/04 10:13:06;;;;;;;9.27;3.30;;;;;;;17.67;41.68;101959.81;5030068;28;20202;-73
2022/05/04 10:15:34;;;;;;;8.13;3.23;;;;;;;18.64;41.55;101957.03;5030040;28;20226;-73
2022/05/04 10:18:16;;;;;;;7.40;3.23;;;;;;;18.56;41.00;101959.59;5030493;28;20214;-73
2022/05/04 10:20:45;;;;;;;7.70;3.20;;;;;;;18.59;40.07;101950.94;5030103;28;20277;-74
2022/05/04 10:23:25;;;;;;;7.57;3.50;;;;;;;18.24;41.29;101949.88;5016649;28;20207;-73
2022/05/04 10:25:51;;;;;;;8.50;3.90;;;;;;;18.59;41.01;101946.63;5012221;28;20211;-74
2022/05/04 10:28:17;;;;;;;6.63;3.37;;;;;;;18.35;40.37;101943.03;5009606;28;20191;-75
2022/05/04 10:30:57;;;;;;;8.70;3.97;;;;;;;17.99;41.84;101951.44;5008831;28;20186;-74
2022/05/04 10:33:25;;;;;;;7.00;3.80;;;;;;;17.58;42.72;101945.06;5018262;28;20206;-71
2022/05/04 10:35:50;;;;;;;9.37;4.03;;;;;;;16.96;42.21;101946.16;5029913;28;20241;-73
2022/05/04 10:38:34;;;;;;;6.77;3.70;;;;;;;17.77;42.81;101946.94;5029750;28;20334;-73
2022/05/04 10:41:06;;;;;;;11.57;3.90;;;;;;;17.95;42.79;101941.03;5010194;28;20175;-74
2022/05/04 10:43:33;;;;;;;8.60;3.57;;;;;;;17.99;43.95;101933.28;5010183;28;20564;-74
2022/05/04 10:46:16;;;;;;;9.23;3.87;;;;;;;17.93;42.66;101933.25;5010243;28;20187;-74
2022/05/04 10:48:50;;;;;;;7.20;3.33;;;;;;;17.89;41.88;101922.84;5010006;28;20660;-74
2022/05/04 10:51:24;;;;;;;9.00;3.80;;;;;;;17.77;42.79;101922.78;5010447;28;20175;-74
2022/05/04 10:54:12;;;;;;;9.80;4.03;;;;;;;18.01;41.67;101926.38;5009765;28;20210;-74
2022/05/04 10:56:45;;;;;;;10.23;4.07;;;;;;;18.21;41.15;101921.31;5010137;28;20253;-74
2022/05/04 10:59:12;;;;;;;9.03;4.03;;;;;;;18.57;41.58;101926.72;5009979;28;20671;-74
2022/05/04 11:01:39;;;;;;;9.40;4.43;;;;;;;18.47;41.67;101922.38;5030333;28;20212;-74
2022/05/04 11:04:11;;;;;;;7.87;3.60;;;;;;;19.09;41.00;101918.22;5044662;28;20190;-74
2022/05/04 11:06:43;;;;;;;7.77;4.07;;;;;;;18.68;40.94;101917.25;5029280;28;20659;-75
2022/05/04 11:09:14;;;;;;;6.40;3.90;;;;;;;18.88;39.77;101913.00;5029896;28;20647;-74
2022/05/04 11:11:45;;;;;;;6.43;3.87;;;;;;;18.86;39.36;101904.34;5029621;28;20235;-74
2022/05/04 11:14:12;;;;;;;8.30;4.10;;;;;;;19.47;39.42;101907.06;5029964;28;20247;-74
2022/05/04 11:16:39;;;;;;;7.63;3.60;;;;;;;19.84;38.92;101903.56;5029210;28;20183;-75
2022/05/04 11:19:05;;;;;;;6.97;3.90;;;;;;;20.07;37.47;101899.19;5029813;28;20216;-75
2022/05/04 11:21:32;;;;;;;6.97;4.20;;;;;;;20.07;38.14;101891.38;5029820;28;20186;-74
2022/05/04 11:24:00;;;;;;;7.37;3.83;;;;;;;19.82;39.63;101894.91;5029105;28;20206;-74
2022/05/04 11:26:33;;;;;;;8.57;4.10;;;;;;;20.36;38.75;101886.13;5015920;28;20234;-74
2022/05/04 11:28:59;;;;;;;9.47;3.97;;;;;;;20.34;38.35;101874.84;5028964;28;20697;-73
2022/05/04 11:31:25;;;;;;;7.40;3.73;;;;;;;20.25;37.79;101880.09;5013333;28;20284;-73
2022/05/04 11:33:51;;;;;;;10.00;3.73;;;;;;;20.68;40.02;101884.25;5021809;28;20210;-73
2022/05/04 11:36:21;;;;;;;7.90;3.60;;;;;;;21.01;37.62;101876.28;5036673;28;20597;-73
2022/05/04 11:38:47;;;;;;;10.13;4.03;;;;;;;20.89;37.20;101885.00;5031970;28;20209;-73
2022/05/04 11:41:14;;;;;;;6.73;3.83;;;;;;;20.97;36.94;101884.97;5055161;28;20192;-73
2022/05/04 11:43:40;;;;;;;7.63;3.63;;;;;;;21.23;36.25;101886.53;5044669;28;20228;-73
2022/05/04 11:46:09;;;;;;;8.77;3.70;;;;;;;21.58;37.18;101879.28;5035122;28;20943;-73
2022/05/04 11:48:38;;;;;;;8.10;4.00;;;;;;;21.79;34.85;101878.28;5016994;28;20229;-73
2022/05/04 11:51:05;;;;;;;7.30;3.90;;;;;;;21.54;35.92;101867.16;5015573;28;20214;-73
2022/05/04 11:53:30;;;;;;;6.80;3.60;;;;;;;21.17;35.97;101880.50;5015973;28;20214;-73